createdAt,value
2017-10-07T00:06:37.000Z,19.69
2017-10-07T00:16:37.000Z,19.73
2017-10-07T00:26:37.000Z,19.73
2017-10-07T00:36:37.000Z,19.69
2017-10-07T00:46:38.000Z,19.68
2017-10-07T00:56:38.000Z,19.71
2017-10-07T01:06:38.000Z,19.6
2017-10-07T01:16:38.000Z,19.66
2017-10-07T01:26:38.000Z,19.64
2017-10-07T01:36:38.000Z,19.66
2017-10-07T01:46:38.000Z,19.62
2017-10-07T01:56:38.000Z,19.57
2017-10-07T02:06:38.000Z,19.49
2017-10-07T02:16:38.000Z,19.54
2017-10-07T02:26:38.000Z,19.46
2017-10-07T02:36:38.000Z,19.55
2017-10-07T02:46:38.000Z,19.51
2017-10-07T02:56:38.000Z,19.53
2017-10-07T03:06:38.000Z,19.5
2017-10-07T03:16:38.000Z,19.47
2017-10-07T03:26:38.000Z,19.44
2017-10-07T03:36:38.000Z,19.47
2017-10-07T03:46:38.000Z,19.42
2017-10-07T03:56:38.000Z,19.43
2017-10-07T04:06:38.000Z,19.4
2017-10-07T04:16:38.000Z,19.34
2017-10-07T04:26:38.000Z,19.29
2017-10-07T04:36:38.000Z,19.31
2017-10-07T04:46:38.000Z,19.31
2017-10-07T04:56:38.000Z,19.29
2017-10-07T05:06:38.000Z,19.3
2017-10-07T05:16:38.000Z,19.25
2017-10-07T05:26:38.000Z,19.2
2017-10-07T05:36:38.000Z,19.22
2017-10-07T05:46:38.000Z,19.23
2017-10-07T05:56:38.000Z,19.19
2017-10-07T06:06:38.000Z,19.15
2017-10-07T06:16:38.000Z,19.18
2017-10-07T06:26:38.000Z,19.12
2017-10-07T06:36:38.000Z,19.18
2017-10-07T06:46:38.000Z,19.22
2017-10-07T06:56:38.000Z,19.24
2017-10-07T07:06:38.000Z,19.23
2017-10-07T07:16:38.000Z,19.26
2017-10-07T07:26:38.000Z,19.29
2017-10-07T07:36:38.000Z,19.24
2017-10-07T07:46:38.000Z,19.25
2017-10-07T07:56:38.000Z,19.21
2017-10-07T08:06:38.000Z,19.31
2017-10-07T08:16:38.000Z,19.44
2017-10-07T08:26:38.000Z,19.39
2017-10-07T08:36:38.000Z,19.46
2017-10-07T08:46:39.000Z,19.5
2017-10-07T08:56:39.000Z,19.51
2017-10-07T09:06:39.000Z,19.5
2017-10-07T09:16:39.000Z,19.34
2017-10-07T09:26:39.000Z,19.46
2017-10-07T09:36:39.000Z,19.5
2017-10-07T09:46:39.000Z,19.42
2017-10-07T09:56:39.000Z,19.15
2017-10-07T10:06:39.000Z,19.06
2017-10-07T10:16:39.000Z,19.02
2017-10-07T10:26:39.000Z,18.99
2017-10-07T10:36:39.000Z,18.97
2017-10-07T10:46:39.000Z,18.95
2017-10-07T10:56:39.000Z,18.92
2017-10-07T11:06:39.000Z,18.9
2017-10-07T11:16:39.000Z,18.86
2017-10-07T11:26:39.000Z,18.88
2017-10-07T11:36:39.000Z,18.84
2017-10-07T11:46:40.000Z,18.81
2017-10-07T11:56:39.000Z,18.79
2017-10-07T12:06:39.000Z,18.79
2017-10-07T12:16:39.000Z,18.77
2017-10-07T12:26:39.000Z,18.75
2017-10-07T12:36:39.000Z,19
2017-10-07T12:46:39.000Z,19.13
2017-10-07T12:56:39.000Z,19.15
2017-10-07T13:06:39.000Z,19.1
2017-10-07T13:16:39.000Z,18.93
2017-10-07T13:26:39.000Z,18.86
2017-10-07T13:36:39.000Z,18.85
2017-10-07T13:46:39.000Z,18.85
2017-10-07T13:56:39.000Z,18.84
2017-10-07T16:46:40.000Z,19.21
2017-10-07T16:56:40.000Z,19.12
2017-10-07T17:06:40.000Z,19.12
2017-10-07T17:16:40.000Z,19.09
2017-10-07T17:26:40.000Z,19.14
2017-10-07T17:36:40.000Z,19.15
2017-10-07T17:46:40.000Z,19.15
2017-10-07T17:56:40.000Z,19.17
2017-10-07T18:06:40.000Z,19.18
2017-10-07T18:16:40.000Z,19.24
2017-10-07T18:26:40.000Z,19.2
2017-10-07T18:36:40.000Z,19.16
2017-10-07T18:46:40.000Z,19.19
2017-10-07T18:56:40.000Z,19.19
2017-10-07T19:06:40.000Z,19.22
2017-10-07T19:16:41.000Z,19.27
2017-10-07T19:26:40.000Z,19.26
2017-10-07T19:36:40.000Z,19.28
2017-10-07T19:46:40.000Z,19.29
2017-10-07T19:56:40.000Z,19.32
2017-10-07T20:06:40.000Z,19.32
2017-10-07T20:16:40.000Z,19.32
2017-10-07T20:26:40.000Z,19.32
2017-10-07T20:36:40.000Z,19.33
2017-10-07T20:46:40.000Z,19.42
2017-10-07T20:56:40.000Z,19.38
2017-10-07T21:06:40.000Z,19.38
2017-10-07T21:16:40.000Z,19.45
2017-10-07T21:26:40.000Z,19.5
2017-10-07T21:36:40.000Z,19.57
2017-10-07T21:46:40.000Z,19.59
2017-10-07T21:56:40.000Z,19.68
2017-10-07T22:06:40.000Z,19.74
2017-10-07T22:16:40.000Z,19.73
2017-10-07T22:26:40.000Z,19.67
2017-10-07T22:36:40.000Z,19.7
2017-10-07T22:46:40.000Z,19.57
2017-10-07T22:56:40.000Z,19.58
2017-10-07T23:06:40.000Z,19.56
2017-10-07T23:16:40.000Z,19.54
2017-10-07T23:26:40.000Z,19.5
2017-10-07T23:36:40.000Z,19.52
2017-10-07T23:46:40.000Z,19.45
2017-10-07T23:56:40.000Z,19.44
